Time;durP1;ratioP1;P1;durP2;ratioP2;P2;SDS_P1;SDS_P2;PMS_P1;PMS_P2;Temp;Humidity;BMP_temperature;BMP_pressure;BME280_temperature;BME280_humidity;BME280_pressure;Samples;Min_cycle;Max_cycle;Signal;HPM_P1;HPM_P2
2022/05/19 00:01:26;;;;;;;15.05;3.25;;;;;;;;;;5095068;28;20202;-74
2022/05/19 00:03:54;;;;;;;15.75;3.15;;;;;;;;;;5094927;28;20204;-73
2022/05/19 00:06:22;;;;;;;16.10;2.92;;;;;;;;;;5094955;28;20261;-74
2022/05/19 00:08:49;;;;;;;21.70;3.13;;;;;;;;;;5094796;28;20254;-74
2022/05/19 00:11:19;;;;;;;13.10;2.28;;;;;;;;;;5094766;28;20219;-74
2022/05/19 00:13:47;;;;;;;15.95;2.80;;;;;;;;;;5094619;28;20199;-74
2022/05/19 00:16:15;;;;;;;13.73;2.53;;;;;;;;;;5094724;28;20208;-74
2022/05/19 00:18:43;;;;;;;17.30;2.72;;;;;;;;;;5094580;28;20236;-74
2022/05/19 00:21:10;;;;;;;18.42;2.47;;;;;;;;;;5094814;28;20212;-74
2022/05/19 00:23:38;;;;;;;13.27;2.60;;;;;;;;;;5094257;28;20675;-74
2022/05/19 00:26:05;;;;;;;12.43;2.35;;;;;;;;;;5094547;28;20199;-74
2022/05/19 00:28:34;;;;;;;13.77;2.97;;;;;;;;;;5094757;28;20199;-73
2022/05/19 00:31:01;;;;;;;12.80;2.22;;;;;;;;;;5093863;28;20249;-73
2022/05/19 00:33:30;;;;;;;12.65;2.35;;;;;;;;;;5094265;28;20199;-73
2022/05/19 00:35:57;;;;;;;13.35;2.28;;;;;;;;;;5093453;28;20199;-74
2022/05/19 00:38:25;;;;;;;13.77;3.05;;;;;;;;;;5094237;28;20290;-74
2022/05/19 00:40:58;;;;;;;16.00;2.90;;;;;;;;;;5094464;28;20197;-73
2022/05/19 00:43:28;;;;;;;16.63;2.88;;;;;;;;;;5094453;28;20323;-73
2022/05/19 00:45:58;;;;;;;15.00;2.63;;;;;;;;;;5094132;28;20241;-73
2022/05/19 00:48:28;;;;;;;15.88;3.17;;;;;;;;;;5093969;28;20204;-73
2022/05/19 00:51:00;;;;;;;12.85;2.53;;;;;;;;;;5094021;28;20206;-73
2022/05/19 00:53:30;;;;;;;12.82;2.33;;;;;;;;;;5093926;28;20224;-73
2022/05/19 00:55:59;;;;;;;14.70;2.70;;;;;;;;;;5094019;28;20196;-74
2022/05/19 00:58:28;;;;;;;14.40;2.78;;;;;;;;;;5093807;28;20654;-74
2022/05/19 01:00:56;;;;;;;13.43;2.50;;;;;;;;;;5093845;28;20195;-73
2022/05/19 01:03:26;;;;;;;11.85;2.15;;;;;;;;;;5093472;28;20212;-73
2022/05/19 01:05:55;;;;;;;13.77;2.50;;;;;;;;;;5093644;28;20202;-73
2022/05/19 01:08:26;;;;;;;15.77;2.80;;;;;;;;;;5093641;28;20202;-74
2022/05/19 01:10:54;;;;;;;12.88;1.90;;;;;;;;;;5093562;28;20201;-73
2022/05/19 01:13:23;;;;;;;13.85;2.42;;;;;;;;;;5093216;28;20232;-73
2022/05/19 01:15:53;;;;;;;12.95;2.22;;;;;;;;;;5093525;28;20201;-73
2022/05/19 01:18:20;;;;;;;12.82;2.30;;;;;;;;;;5093349;28;20232;-73
2022/05/19 01:20:49;;;;;;;12.93;2.20;;;;;;;;;;5093637;28;20194;-73
2022/05/19 01:23:21;;;;;;;12.30;2.08;;;;;;;;;;5093235;28;20684;-74
2022/05/19 01:26:07;;;;;;;20.88;2.50;;;;;;;;;;5093541;28;20208;-73
2022/05/19 01:28:35;;;;;;;12.52;2.30;;;;;;;;;;5093363;28;20248;-74
2022/05/19 01:31:03;;;;;;;14.88;2.33;;;;;;;;;;5093157;28;20218;-74
2022/05/19 01:33:30;;;;;;;12.95;2.20;;;;;;;;;;5092863;28;20231;-73
2022/05/19 01:35:58;;;;;;;13.38;2.33;;;;;;;;;;5093136;28;20215;-73
2022/05/19 01:38:28;;;;;;;11.80;1.90;;;;;;;;;;5093069;28;20206;-73
2022/05/19 01:41:00;;;;;;;13.57;2.45;;;;;;;;;;5092927;28;20279;-73
2022/05/19 01:43:32;;;;;;;11.70;2.13;;;;;;;;;;5092800;28;20197;-73
2022/05/19 01:46:07;;;;;;;12.40;2.05;;;;;;;;;;5092923;28;20202;-73
2022/05/19 01:48:38;;;;;;;13.65;2.60;;;;;;;;;;5092748;28;20212;-73
2022/05/19 01:51:10;;;;;;;12.40;2.45;;;;;;;;;;5092901;28;20208;-73
2022/05/19 01:53:41;;;;;;;12.07;2.05;;;;;;;;;;5092414;28;20221;-73
2022/05/19 01:56:13;;;;;;;16.15;2.30;;;;;;;;;;5092922;28;20207;-73
2022/05/19 01:58:43;;;;;;;17.02;2.97;;;;;;;;;;5092810;28;20207;-73
2022/05/19 02:01:13;;;;;;;14.10;2.63;;;;;;;;;;5092816;28;20203;-73
2022/05/19 02:03:45;;;;;;;11.68;1.80;;;;;;;;;;5092577;28;20209;-73
2022/05/19 02:06:15;;;;;;;16.23;2.10;;;;;;;;;;5092495;28;20192;-73
2022/05/19 02:08:47;;;;;;;13.65;2.50;;;;;;;;;;5092783;28;20200;-73
2022/05/19 02:11:16;;;;;;;15.10;2.60;;;;;;;;;;5092276;28;20284;-74
2022/05/19 02:13:44;;;;;;;13.55;1.92;;;;;;;;;;5092511;28;20236;-73
2022/05/19 02:16:14;;;;;;;12.90;2.10;;;;;;;;;;5092527;28;20758;-73
2022/05/19 02:18:42;;;;;;;12.07;2.10;;;;;;;;;;5093027;28;20286;-73
2022/05/19 02:21:10;;;;;;;19.92;2.78;;;;;;;;;;5092561;28;20197;-73
2022/05/19 02:23:38;;;;;;;12.93;1.95;;;;;;;;;;5092279;28;20204;-73
2022/05/19 02:26:05;;;;;;;12.32;2.47;;;;;;;;;;5092455;28;20199;-73
2022/05/19 02:28:35;;;;;;;14.93;2.20;;;;;;;;;;5092410;28;20241;-73
2022/05/19 02:31:03;;;;;;;12.73;2.35;;;;;;;;;;5091774;28;20303;-73
2022/05/19 02:33:32;;;;;;;12.25;2.38;;;;;;;;;;5092108;28;20228;-73
2022/05/19 02:35:59;;;;;;;16.45;2.50;;;;;;;;;;5092043;28;20286;-73
2022/05/19 02:38:27;;;;;;;11.73;2.30;;;;;;;;;;5092146;28;20197;-73
2022/05/19 02:40:56;;;;;;;12.80;2.38;;;;;;;;;;5092289;28;20199;-73
2022/05/19 02:43:23;;;;;;;13.10;2.30;;;;;;;;;;5091779;28;20208;-73
2022/05/19 02:45:51;;;;;;;15.15;2.40;;;;;;;;;;5092451;28;20203;-73
2022/05/19 02:48:19;;;;;;;11.52;1.95;;;;;;;;;;5092090;28;20280;-73
2022/05/19 02:50:48;;;;;;;12.80;2.00;;;;;;;;;;5091852;28;20200;-73
2022/05/19 02:53:16;;;;;;;17.27;2.42;;;;;;;;;;5091707;28;20233;-74
2022/05/19 02:55:44;;;;;;;12.55;1.92;;;;;;;;;;5091860;28;20199;-73
2022/05/19 02:58:12;;;;;;;12.50;2.15;;;;;;;;;;5091945;28;20673;-73
2022/05/19 03:00:41;;;;;;;15.55;2.85;;;;;;;;;;5095327;28;20202;-73
2022/05/19 03:03:08;;;;;;;13.90;1.77;;;;;;;;;;5096306;28;20234;-74
2022/05/19 03:05:36;;;;;;;16.15;2.72;;;;;;;;;;5096118;28;20208;-74
2022/05/19 03:08:05;;;;;;;12.68;2.53;;;;;;;;;;5096000;28;20593;-73
2022/05/19 03:10:32;;;;;;;12.55;2.25;;;;;;;;;;5095824;28;20213;-73
2022/05/19 03:13:00;;;;;;;12.30;2.58;;;;;;;;;;5096067;28;20228;-73
2022/05/19 03:15:28;;;;;;;13.93;2.40;;;;;;;;;;5095884;28;20197;-73
2022/05/19 03:17:55;;;;;;;12.98;2.53;;;;;;;;;;5096091;28;20743;-73
2022/05/19 03:20:23;;;;;;;14.30;2.85;;;;;;;;;;5095855;28;20192;-73
2022/05/19 03:22:51;;;;;;;14.88;2.75;;;;;;;;;;5095842;28;20203;-73
2022/05/19 03:25:19;;;;;;;11.75;2.38;;;;;;;;;;5095291;28;20201;-74
2022/05/19 03:27:47;;;;;;;15.57;2.50;;;;;;;;;;5095526;28;20685;-73
2022/05/19 03:30:16;;;;;;;14.45;2.80;;;;;;;;;;5095494;28;20217;-73
2022/05/19 03:32:44;;;;;;;15.52;2.42;;;;;;;;;;5095647;28;20247;-74
2022/05/19 03:35:12;;;;;;;14.23;2.75;;;;;;;;;;5095792;28;20199;-74
2022/05/19 03:37:40;;;;;;;15.45;3.00;;;;;;;;;;5095426;28;20231;-74
2022/05/19 03:40:08;;;;;;;13.52;2.63;;;;;;;;;;5096018;28;20283;-74
2022/05/19 03:42:37;;;;;;;12.93;2.40;;;;;;;;;;5095609;28;20192;-74
2022/05/19 03:45:05;;;;;;;13.05;2.72;;;;;;;;;;5095256;28;20206;-74
2022/05/19 03:47:33;;;;;;;12.70;2.47;;;;;;;;;;5094952;28;20658;-74
2022/05/19 03:50:03;;;;;;;16.48;3.35;;;;;;;;;;5095206;28;20728;-73
2022/05/19 03:52:30;;;;;;;13.50;2.45;;;;;;;;;;5095303;28;20728;-74
2022/05/19 03:54:58;;;;;;;29.60;7.65;;;;;;;;;;5095018;28;20206;-74
2022/05/19 03:57:25;;;;;;;13.63;3.17;;;;;;;;;;5094878;28;20202;-75
2022/05/19 03:59:54;;;;;;;16.45;3.63;;;;;;;;;;5095123;28;20196;-74
2022/05/19 04:02:21;;;;;;;17.17;3.20;;;;;;;;;;5094909;28;20206;-75
2022/05/19 04:04:49;;;;;;;13.27;2.60;;;;;;;;;;5094892;28;20455;-75
2022/05/19 04:07:17;;;;;;;14.10;3.17;;;;;;;;;;5094856;28;20500;-75
2022/05/19 04:09:44;;;;;;;12.17;2.60;;;;;;;;;;5094689;28;20449;-75
2022/05/19 04:12:12;;;;;;;13.73;3.07;;;;;;;;;;5095205;28;20442;-75
2022/05/19 04:14:40;;;;;;;12.90;2.57;;;;;;;;;;5094818;28;20437;-75
2022/05/19 04:17:08;;;;;;;14.00;2.70;;;;;;;;;;5094813;28;20480;-75
2022/05/19 04:19:36;;;;;;;13.53;2.50;;;;;;;;;;5094546;28;20442;-75
2022/05/19 04:22:04;;;;;;;14.63;2.43;;;;;;;;;;5094470;28;20438;-75
2022/05/19 04:24:32;;;;;;;12.00;2.03;;;;;;;;;;5094602;28;20847;-75
2022/05/19 04:27:01;;;;;;;13.20;2.03;;;;;;;;;;5094665;28;20442;-75
2022/05/19 04:29:29;;;;;;;12.80;2.10;;;;;;;;;;5094410;28;20449;-75
2022/05/19 04:31:56;;;;;;;14.83;2.00;;;;;;;;;;5093966;28;20899;-75
2022/05/19 04:34:25;;;;;;;13.40;2.63;;;;;;;;;;5094165;28;20478;-75
2022/05/19 04:36:53;;;;;;;15.43;3.00;;;;;;;;;;5094287;28;20439;-75
2022/05/19 04:39:20;;;;;;;25.43;3.27;;;;;;;;;;5094140;28;20438;-76
2022/05/19 04:41:49;;;;;;;13.10;2.53;;;;;;;;;;5094548;28;20903;-75
2022/05/19 04:44:20;;;;;;;13.40;3.10;;;;;;;;;;5094019;28;20541;-75
2022/05/19 04:46:47;;;;;;;12.97;2.70;;;;;;;;;;5094151;28;20546;-75
2022/05/19 04:49:15;;;;;;;19.20;2.80;;;;;;;;;;5093891;28;20441;-75
2022/05/19 04:51:44;;;;;;;13.80;3.00;;;;;;;;;;5094134;28;20519;-75
2022/05/19 04:54:11;;;;;;;19.27;3.40;;;;;;;;;;5093923;28;20482;-75
2022/05/19 04:56:40;;;;;;;14.73;2.63;;;;;;;;;;5094003;28;20543;-76
2022/05/19 04:59:13;;;;;;;16.03;2.80;;;;;;;;;;5093899;28;20453;-76
2022/05/19 05:01:41;;;;;;;14.57;2.60;;;;;;;;;;5093790;28;20960;-76
2022/05/19 05:04:08;;;;;;;13.50;2.77;;;;;;;;;;5093676;28;20537;-75
2022/05/19 05:06:36;;;;;;;13.43;2.73;;;;;;;;;;5093854;28;20819;-76
2022/05/19 05:09:05;;;;;;;15.40;2.70;;;;;;;;;;5093574;28;20446;-76
2022/05/19 05:11:33;;;;;;;15.73;3.40;;;;;;;;;;5093317;28;20439;-76
2022/05/19 05:14:00;;;;;;;13.57;2.73;;;;;;;;;;5093673;28;20863;-76
2022/05/19 05:16:29;;;;;;;14.90;2.93;;;;;;;;;;5094028;28;20444;-76
2022/05/19 05:18:56;;;;;;;13.87;2.57;;;;;;;;;;5093167;28;20473;-76
2022/05/19 05:21:24;;;;;;;14.40;2.90;;;;;;;;;;5093175;28;20442;-76
2022/05/19 05:23:51;;;;;;;13.93;3.10;;;;;;;;;;5093237;28;21015;-76
2022/05/19 05:26:20;;;;;;;12.53;2.87;;;;;;;;;;5094045;28;20835;-75
2022/05/19 05:28:47;;;;;;;14.13;2.50;;;;;;;;;;5093174;28;20453;-76
2022/05/19 05:31:15;;;;;;;15.00;2.87;;;;;;;;;;5092912;28;20470;-77
2022/05/19 05:33:43;;;;;;;15.90;2.60;;;;;;;;;;5093336;28;20482;-77
2022/05/19 05:36:10;;;;;;;14.67;2.77;;;;;;;;;;5093261;28;20925;-76
2022/05/19 05:38:37;;;;;;;15.73;2.70;;;;;;;;;;5093165;28;20429;-77
2022/05/19 05:41:05;;;;;;;13.90;3.00;;;;;;;;;;5092963;28;20437;-76
2022/05/19 05:43:35;;;;;;;13.10;2.53;;;;;;;;;;5092994;28;20440;-76
2022/05/19 05:46:06;;;;;;;17.93;3.33;;;;;;;;;;5092890;28;20460;-76
2022/05/19 05:48:36;;;;;;;14.53;2.30;;;;;;;;;;5092843;28;20438;-76
2022/05/19 05:51:06;;;;;;;13.90;2.40;;;;;;;;;;5093096;28;20440;-76
2022/05/19 05:53:33;;;;;;;16.30;2.80;;;;;;;;;;5092421;28;20513;-77
2022/05/19 05:56:01;;;;;;;20.07;2.67;;;;;;;;;;5092861;28;20445;-76
2022/05/19 05:58:28;;;;;;;14.37;2.30;;;;;;;;;;5092887;28;20449;-76
2022/05/19 06:00:57;;;;;;;14.77;2.50;;;;;;;;;;5092919;28;20441;-76
2022/05/19 06:03:25;;;;;;;12.93;2.27;;;;;;;;;;5092586;28;20434;-76
2022/05/19 06:05:52;;;;;;;13.93;2.53;;;;;;;;;;5092733;28;20437;-76
2022/05/19 06:08:21;;;;;;;14.33;2.60;;;;;;;;;;5092570;28;20966;-76
2022/05/19 06:10:49;;;;;;;13.30;2.80;;;;;;;;;;5092452;28;20434;-76
2022/05/19 06:13:17;;;;;;;14.00;2.27;;;;;;;;;;5092265;28;20481;-76
2022/05/19 06:15:44;;;;;;;14.87;2.50;;;;;;;;;;5092255;28;20826;-76
2022/05/19 06:18:13;;;;;;;13.83;2.57;;;;;;;;;;5092744;28;20468;-76
2022/05/19 06:20:41;;;;;;;13.90;2.37;;;;;;;;;;5092323;28;20435;-76
2022/05/19 06:23:09;;;;;;;13.80;2.70;;;;;;;;;;5092442;28;20436;-76
2022/05/19 06:25:38;;;;;;;13.50;2.60;;;;;;;;;;5092041;28;20974;-76
2022/05/19 06:28:05;;;;;;;13.87;2.60;;;;;;;;;;5092247;28;20447;-76
2022/05/19 06:30:33;;;;;;;13.57;2.50;;;;;;;;;;5091827;28;20466;-77
2022/05/19 06:33:01;;;;;;;14.37;2.63;;;;;;;;;;5092139;28;20477;-76
2022/05/19 06:35:30;;;;;;;15.93;2.53;;;;;;;;;;5091339;28;20453;-76
2022/05/19 06:37:58;;;;;;;13.10;2.53;;;;;;;;;;5092261;28;20455;-76
2022/05/19 06:40:25;;;;;;;13.90;2.40;;;;;;;;;;5092091;28;20497;-76
2022/05/19 06:42:53;;;;;;;13.30;2.13;;;;;;;;;;5092082;28;20450;-76
2022/05/19 06:45:24;;;;;;;15.20;2.87;;;;;;;;;;5091782;28;20437;-76
2022/05/19 06:47:52;;;;;;;13.10;2.17;;;;;;;;;;5092229;28;20440;-76
2022/05/19 06:50:20;;;;;;;12.83;2.20;;;;;;;;;;5092205;28;20446;-76
2022/05/19 06:52:50;;;;;;;15.30;2.57;;;;;;;;;;5092089;28;21009;-77
2022/05/19 06:55:18;;;;;;;13.17;2.30;;;;;;;;;;5091500;28;20489;-77
2022/05/19 06:57:46;;;;;;;13.93;2.67;;;;;;;;;;5091815;28;20510;-77
2022/05/19 07:00:17;;;;;;;15.50;2.33;;;;;;;;;;5091955;28;20433;-76
2022/05/19 07:02:46;;;;;;;14.73;2.50;;;;;;;;;;5092009;28;20786;-76
2022/05/19 07:05:14;;;;;;;13.63;2.40;;;;;;;;;;5091749;28;20446;-76
2022/05/19 07:07:41;;;;;;;12.50;2.30;;;;;;;;;;5091952;28;20446;-76
2022/05/19 07:10:11;;;;;;;14.07;2.60;;;;;;;;;;5091770;28;20814;-76
2022/05/19 07:12:38;;;;;;;13.40;2.40;;;;;;;;;;5091887;28;20441;-76
2022/05/19 07:15:06;;;;;;;12.40;2.13;;;;;;;;;;5091779;28;20538;-76
2022/05/19 07:17:34;;;;;;;14.13;2.60;;;;;;;;;;5091811;28;21120;-76
2022/05/19 07:22:47;;;;;;;12.93;2.40;;;;;;;;;;5091813;28;20511;-76
2022/05/19 07:25:15;;;;;;;14.40;2.50;;;;;;;;;;5091663;28;20882;-77
2022/05/19 07:27:43;;;;;;;14.73;2.70;;;;;;;;;;5091683;28;20973;-77
2022/05/19 07:30:11;;;;;;;15.13;2.40;;;;;;;;;;5091318;28;20438;-76
2022/05/19 07:32:40;;;;;;;13.00;2.40;;;;;;;;;;5091513;28;20442;-76
2022/05/19 07:35:09;;;;;;;12.60;1.87;;;;;;;;;;5091518;28;20580;-76
2022/05/19 07:37:37;;;;;;;13.10;2.13;;;;;;;;;;5091276;28;20506;-76
2022/05/19 07:40:06;;;;;;;14.63;2.57;;;;;;;;;;5091517;28;20434;-77
2022/05/19 07:42:34;;;;;;;15.37;2.60;;;;;;;;;;5091826;28;20442;-77
2022/05/19 07:45:02;;;;;;;15.83;2.70;;;;;;;;;;5092015;28;20950;-76
2022/05/19 07:47:30;;;;;;;14.20;2.63;;;;;;;;;;5094512;28;20441;-76
2022/05/19 07:49:58;;;;;;;14.80;3.03;;;;;;;;;;5095235;28;20430;-76
2022/05/19 07:52:26;;;;;;;13.70;2.37;;;;;;;;;;5095394;28;20442;-76
2022/05/19 07:54:54;;;;;;;16.70;2.63;;;;;;;;;;5095524;28;20860;-75
2022/05/19 07:57:22;;;;;;;14.27;2.77;;;;;;;;;;5094961;28;20430;-76
2022/05/19 07:59:51;;;;;;;17.30;2.93;;;;;;;;;;5094905;28;20529;-76
2022/05/19 08:02:19;;;;;;;20.37;3.13;;;;;;;;;;5094819;28;20540;-75
2022/05/19 08:04:46;;;;;;;13.20;2.20;;;;;;;;;;5095098;28;20491;-76
2022/05/19 08:07:15;;;;;;;15.73;2.73;;;;;;;;;;5094910;28;20464;-76
2022/05/19 08:18:01;;;;;;;14.00;2.90;;;;;;;;;;5094842;28;20473;-75
2022/05/19 08:20:29;;;;;;;13.70;2.20;;;;;;;;;;5094594;28;20488;-75
2022/05/19 08:22:58;;;;;;;13.80;2.67;;;;;;;;;;5094703;28;20440;-75
2022/05/19 08:25:26;;;;;;;14.27;2.40;;;;;;;;;;5094577;28;20446;-75
2022/05/19 08:27:54;;;;;;;16.47;2.77;;;;;;;;;;5094472;28;20444;-76
2022/05/19 08:30:23;;;;;;;14.43;2.23;;;;;;;;;;5094210;28;20834;-75
2022/05/19 08:32:51;;;;;;;17.00;2.00;;;;;;;;;;5094283;28;20439;-75
2022/05/19 08:35:20;;;;;;;14.90;2.20;;;;;;;;;;5094112;28;20560;-75
2022/05/19 08:37:48;;;;;;;15.27;2.30;;;;;;;;;;5094168;28;20477;-75
2022/05/19 08:40:16;;;;;;;12.70;2.20;;;;;;;;;;5094274;28;20452;-76
2022/05/19 08:42:46;;;;;;;13.97;1.90;;;;;;;;;;5094288;28;20505;-76
2022/05/19 08:45:18;;;;;;;14.40;2.00;;;;;;;;;;5094028;28;20454;-75
2022/05/19 08:47:48;;;;;;;14.17;1.73;;;;;;;;;;5094412;28;20440;-75
2022/05/19 08:50:22;;;;;;;17.30;2.57;;;;;;;;;;5094060;28;20560;-75
2022/05/19 08:52:52;;;;;;;12.63;2.00;;;;;;;;;;5094280;28;20449;-76
2022/05/19 08:55:20;;;;;;;12.53;1.87;;;;;;;;;;5093882;28;20513;-75
2022/05/19 08:57:52;;;;;;;12.67;1.80;;;;;;;;;;5093294;28;20506;-75
2022/05/19 09:00:21;;;;;;;14.77;1.73;;;;;;;;;;5093957;28;20463;-75
2022/05/19 09:03:01;;;;;;;20.03;2.00;;;;;;;;;;5093674;28;20533;-75
2022/05/19 09:05:36;;;;;;;14.00;2.23;;;;;;;;;;5093522;28;20503;-75
2022/05/19 09:08:10;;;;;;;13.27;2.10;;;;;;;;;;5093719;28;20471;-75
2022/05/19 09:10:46;;;;;;;13.63;2.10;;;;;;;;;;5093727;28;20427;-75
2022/05/19 09:13:22;;;;;;;16.20;1.90;;;;;;;;;;5093344;28;20949;-75
2022/05/19 09:15:50;;;;;;;12.53;1.80;;;;;;;;;;5093662;28;20542;-75
2022/05/19 09:18:20;;;;;;;17.23;2.20;;;;;;;;;;5093759;28;20470;-75
2022/05/19 09:20:50;;;;;;;16.43;1.97;;;;;;;;;;5093586;28;20439;-75
2022/05/19 09:23:18;;;;;;;12.97;2.17;;;;;;;;;;5093333;28;20923;-75
2022/05/19 09:25:47;;;;;;;12.90;2.17;;;;;;;;;;5093209;28;20441;-76
2022/05/19 09:28:15;;;;;;;13.33;2.10;;;;;;;;;;5093593;28;20440;-75
2022/05/19 09:30:47;;;;;;;13.77;2.13;;;;;;;;;;5092873;28;20488;-75
2022/05/19 09:33:16;;;;;;;16.20;2.40;;;;;;;;;;5093179;28;20432;-76
2022/05/19 09:35:47;;;;;;;12.93;2.00;;;;;;;;;;5093026;28;21001;-75
2022/05/19 09:38:25;;;;;;;17.23;2.50;;;;;;;;;;5093243;28;20480;-75
2022/05/19 09:40:56;;;;;;;20.53;2.47;;;;;;;;;;5093453;28;20429;-75
2022/05/19 09:43:28;;;;;;;12.27;1.80;;;;;;;;;;5092803;28;20443;-75
2022/05/19 09:46:05;;;;;;;15.83;2.10;;;;;;;;;;5092985;28;20445;-75
2022/05/19 09:48:34;;;;;;;13.03;2.23;;;;;;;;;;5092855;28;20963;-75
2022/05/19 09:51:04;;;;;;;14.70;2.27;;;;;;;;;;5093129;28;20532;-75
2022/05/19 09:53:37;;;;;;;14.07;1.93;;;;;;;;;;5093135;28;20953;-75
2022/05/19 09:56:09;;;;;;;15.00;2.23;;;;;;;;;;5093085;28;20482;-75
2022/05/19 09:58:38;;;;;;;14.60;2.30;;;;;;;;;;5092832;28;20525;-75
2022/05/19 10:01:06;;;;;;;15.97;1.83;;;;;;;;;;5092592;28;20444;-75
2022/05/19 10:03:36;;;;;;;12.90;2.00;;;;;;;;;;5092375;28;20853;-75
2022/05/19 10:06:06;;;;;;;12.93;2.10;;;;;;;;;;5092732;28;20446;-75
2022/05/19 10:08:37;;;;;;;12.27;1.90;;;;;;;;;;5093145;28;20440;-75
2022/05/19 10:11:05;;;;;;;13.57;2.40;;;;;;;;;;5092801;28;20434;-75
2022/05/19 10:13:36;;;;;;;15.53;2.60;;;;;;;;;;5092295;28;20445;-75
2022/05/19 10:16:08;;;;;;;12.90;2.37;;;;;;;;;;5092361;28;20500;-76
2022/05/19 10:18:51;;;;;;;14.43;2.33;;;;;;;;;;5092701;28;20511;-76
2022/05/19 10:21:34;;;;;;;13.50;1.93;;;;;;;;;;5092318;28;20438;-75
2022/05/19 10:24:10;;;;;;;13.30;2.13;;;;;;;;;;5091829;28;20521;-75
2022/05/19 10:26:43;;;;;;;18.60;3.17;;;;;;;;;;5092693;28;20535;-75
2022/05/19 10:32:22;;;;;;;15.13;2.50;;;;;;;;;;5091939;28;20471;-75
2022/05/19 10:34:55;;;;;;;16.23;2.20;;;;;;;;;;5092607;28;20513;-75
2022/05/19 10:37:29;;;;;;;13.30;2.00;;;;;;;;;;5091925;28;20491;-75
2022/05/19 10:40:04;;;;;;;13.13;1.70;;;;;;;;;;5092328;28;20480;-75
2022/05/19 10:42:40;;;;;;;13.07;2.00;;;;;;;;;;5092066;28;20958;-75
2022/05/19 10:45:26;;;;;;;14.77;2.07;;;;;;;;;;5092424;28;20462;-75
2022/05/19 10:48:10;;;;;;;13.00;2.50;;;;;;;;;;5092256;28;20434;-75
2022/05/19 10:50:39;;;;;;;15.53;1.90;;;;;;;;;;5091968;28;20530;-75
2022/05/19 10:53:14;;;;;;;17.53;2.43;;;;;;;;;;5091906;28;20479;-75
2022/05/19 10:55:45;;;;;;;12.93;1.90;;;;;;;;;;5092400;28;21004;-76
2022/05/19 10:58:23;;;;;;;12.83;2.07;;;;;;;;;;5091892;28;20554;-75
2022/05/19 11:00:57;;;;;;;14.13;2.20;;;;;;;;;;5092287;28;20523;-75
2022/05/19 11:03:48;;;;;;;16.73;2.40;;;;;;;;;;5091791;28;20959;-75
2022/05/19 11:06:27;;;;;;;14.90;2.07;;;;;;;;;;5092309;28;20457;-75
2022/05/19 11:09:01;;;;;;;15.83;2.30;;;;;;;;;;5092174;28;20457;-76
2022/05/19 11:11:31;;;;;;;13.90;2.30;;;;;;;;;;5091839;28;20836;-76
2022/05/19 11:14:06;;;;;;;14.90;2.20;;;;;;;;;;5091638;28;20441;-75
2022/05/19 11:16:43;;;;;;;12.30;1.97;;;;;;;;;;5091751;28;21034;-75
2022/05/19 11:19:14;;;;;;;13.63;2.20;;;;;;;;;;5051659;28;20508;-75
2022/05/19 11:21:44;;;;;;;12.30;2.20;;;;;;;;;;5055041;28;20461;-75
2022/05/19 11:24:21;;;;;;;13.60;2.20;;;;;;;;;;5055436;28;20450;-76
2022/05/19 11:26:49;;;;;;;14.10;2.03;;;;;;;;;;5055709;28;20525;-75
2022/05/19 11:29:23;;;;;;;13.00;1.80;;;;;;;;;;5055216;28;20530;-75
2022/05/19 11:31:56;;;;;;;13.93;2.50;;;;;;;;;;5055179;28;20463;-75
2022/05/19 11:34:27;;;;;;;14.60;2.00;;;;;;;;;;5055338;28;20439;-75
2022/05/19 11:36:59;;;;;;;14.80;1.90;;;;;;;;;;5055327;28;20424;-75
2022/05/19 11:39:33;;;;;;;12.90;1.80;;;;;;;;;;5055289;28;20457;-75
2022/05/19 11:42:04;;;;;;;15.40;2.00;;;;;;;;;;5055472;28;20447;-75
2022/05/19 11:44:35;;;;;;;13.17;1.97;;;;;;;;;;5055206;28;20448;-75
2022/05/19 11:47:07;;;;;;;14.00;1.90;;;;;;;;;;5055312;28;20436;-75
2022/05/19 11:55:17;;;;;;;14.13;2.07;;;;;;;;;;5054942;28;20479;-75
2022/05/19 11:57:47;;;;;;;12.97;1.83;;;;;;;;;;5054798;28;20442;-75
2022/05/19 12:00:20;;;;;;;13.93;1.80;;;;;;;;;;5055240;28;20455;-76
2022/05/19 12:02:51;;;;;;;14.23;2.03;;;;;;;;;;5055244;28;20440;-76
2022/05/19 12:05:23;;;;;;;12.50;1.80;;;;;;;;;;5054770;28;20454;-76
2022/05/19 12:07:53;;;;;;;13.40;1.90;;;;;;;;;;5055025;28;20443;-76
2022/05/19 12:10:25;;;;;;;12.27;1.50;;;;;;;;;;5054522;28;20456;-75
2022/05/19 12:12:57;;;;;;;13.67;2.10;;;;;;;;;;5054542;28;20539;-75
2022/05/19 12:15:26;;;;;;;14.37;2.00;;;;;;;;;;5054460;28;20509;-76
2022/05/19 12:17:59;;;;;;;13.87;1.97;;;;;;;;;;5076807;28;20466;-76
2022/05/19 12:20:37;;;;;;;12.20;1.90;;;;;;;;;;5094985;28;20821;-75
2022/05/19 12:23:15;;;;;;;16.20;2.27;;;;;;;;;;5094653;28;20428;-76
2022/05/19 12:25:46;;;;;;;13.27;2.00;;;;;;;;;;5095025;28;20438;-76
2022/05/19 12:28:28;;;;;;;12.30;1.90;;;;;;;;;;5094925;28;20451;-76
2022/05/19 12:33:51;;;;;;;12.80;1.80;;;;;;;;;;5094214;28;20565;-76
2022/05/19 12:36:19;;;;;;;13.10;1.90;;;;;;;;;;5094260;28;20483;-76
2022/05/19 12:38:47;;;;;;;13.00;2.13;;;;;;;;;;5094394;28;20459;-76
2022/05/19 12:41:31;;;;;;;13.90;2.33;;;;;;;;;;5094020;28;20449;-76
2022/05/19 12:44:20;;;;;;;12.40;1.90;;;;;;;;;;5093985;28;20461;-75
2022/05/19 12:46:48;;;;;;;14.53;2.40;;;;;;;;;;5094335;28;20517;-76
2022/05/19 12:49:19;;;;;;;13.33;2.00;;;;;;;;;;5093991;28;20438;-76
2022/05/19 12:51:48;;;;;;;13.40;2.23;;;;;;;;;;5093921;28;20438;-76
2022/05/19 12:54:16;;;;;;;16.27;2.03;;;;;;;;;;5093993;28;20969;-76
2022/05/19 12:56:57;;;;;;;13.17;2.10;;;;;;;;;;5094078;28;20578;-76
2022/05/19 12:59:48;;;;;;;12.70;1.90;;;;;;;;;;5093855;28;20441;-76
2022/05/19 13:02:24;;;;;;;13.50;2.33;;;;;;;;;;5078897;28;20536;-76
2022/05/19 13:04:55;;;;;;;13.63;2.60;;;;;;;;;;5094349;28;20444;-76
2022/05/19 13:07:24;;;;;;;12.80;2.40;;;;;;;;;;5093577;28;20440;-75
2022/05/19 13:09:57;;;;;;;13.47;2.43;;;;;;;;;;5093745;28;20443;-76
2022/05/19 13:12:26;;;;;;;14.13;2.87;;;;;;;;;;5093833;28;20438;-75
2022/05/19 13:14:55;;;;;;;15.47;2.80;;;;;;;;;;5093601;28;20448;-75
2022/05/19 13:17:28;;;;;;;13.63;2.50;;;;;;;;;;5093549;28;20471;-76
2022/05/19 13:19:56;;;;;;;14.97;3.27;;;;;;;;;;5093831;28;20454;-75
2022/05/19 13:22:25;;;;;;;13.57;2.57;;;;;;;;;;5093740;28;20449;-76
2022/05/19 13:24:52;;;;;;;14.30;3.03;;;;;;;;;;5093380;28;21020;-75
2022/05/19 13:30:23;;;;;;;15.07;3.60;;;;;;;;;;5093724;28;20971;-75
2022/05/19 13:32:52;;;;;;;17.20;3.03;;;;;;;;;;5094131;28;20442;-76
2022/05/19 13:35:22;;;;;;;13.87;3.10;;;;;;;;;;5093091;28;20442;-76
2022/05/19 13:37:51;;;;;;;13.50;2.50;;;;;;;;;;5093281;28;20434;-75
2022/05/19 13:40:19;;;;;;;20.20;3.07;;;;;;;;;;5093065;28;20442;-76
2022/05/19 13:42:51;;;;;;;19.13;4.57;;;;;;;;;;5092698;28;20943;-76
2022/05/19 13:45:20;;;;;;;13.60;2.87;;;;;;;;;;5092948;28;20438;-76
2022/05/19 13:47:47;;;;;;;15.27;3.00;;;;;;;;;;5093321;28;20442;-76
2022/05/19 13:50:20;;;;;;;17.03;3.57;;;;;;;;;;5092970;28;20981;-75
2022/05/19 13:52:52;;;;;;;13.20;3.10;;;;;;;;;;5092992;28;20950;-76
2022/05/19 13:55:25;;;;;;;13.50;2.70;;;;;;;;;;5092602;28;20435;-75
2022/05/19 13:57:53;;;;;;;17.60;3.77;;;;;;;;;;5093479;28;20870;-76
2022/05/19 14:00:21;;;;;;;14.87;3.50;;;;;;;;;;5092962;28;20442;-75
2022/05/19 14:02:49;;;;;;;19.13;3.50;;;;;;;;;;5092769;28;20442;-76
2022/05/19 14:05:19;;;;;;;15.53;2.97;;;;;;;;;;5092696;28;20430;-76
2022/05/19 14:07:49;;;;;;;14.17;3.27;;;;;;;;;;5092632;28;20448;-75
2022/05/19 14:10:18;;;;;;;16.97;3.30;;;;;;;;;;5092877;28;20450;-75
2022/05/19 14:12:47;;;;;;;13.93;3.53;;;;;;;;;;5092528;28;20514;-76
2022/05/19 14:15:22;;;;;;;15.60;3.00;;;;;;;;;;5092086;28;20438;-76
2022/05/19 14:17:50;;;;;;;13.83;3.00;;;;;;;;;;5093088;28;20555;-75
2022/05/19 14:20:21;;;;;;;14.00;3.17;;;;;;;;;;5092584;28;20462;-76
2022/05/19 14:22:53;;;;;;;15.23;3.77;;;;;;;;;;5092773;28;20453;-75
2022/05/19 14:25:22;;;;;;;17.10;3.33;;;;;;;;;;5092428;28;20452;-76
2022/05/19 14:27:52;;;;;;;15.47;4.00;;;;;;;;;;5092390;28;20446;-75
2022/05/19 14:30:20;;;;;;;14.90;3.93;;;;;;;;;;5092576;28;20447;-76
2022/05/19 14:32:52;;;;;;;13.97;3.60;;;;;;;;;;5092175;28;20480;-76
2022/05/19 14:35:21;;;;;;;15.40;4.00;;;;;;;;;;5092126;28;20437;-75
2022/05/19 14:37:50;;;;;;;13.40;2.83;;;;;;;;;;5092327;28;20445;-75
2022/05/19 14:43:09;;;;;;;22.03;3.60;;;;;;;;;;5092253;28;20560;-76
2022/05/19 14:45:38;;;;;;;14.90;3.30;;;;;;;;;;5091998;28;20469;-75
2022/05/19 14:48:09;;;;;;;18.43;3.30;;;;;;;;;;5092003;28;20500;-76
2022/05/19 14:50:36;;;;;;;14.07;2.87;;;;;;;;;;5091980;28;20491;-76
2022/05/19 14:53:06;;;;;;;15.60;3.00;;;;;;;;;;5091938;28;20442;-75
2022/05/19 14:55:37;;;;;;;14.33;3.07;;;;;;;;;;5090822;28;20444;-76
2022/05/19 14:58:06;;;;;;;13.23;2.93;;;;;;;;;;5091899;28;20453;-76
2022/05/19 15:00:35;;;;;;;14.10;3.37;;;;;;;;;;5092107;28;20892;-76
2022/05/19 15:03:03;;;;;;;13.17;2.30;;;;;;;;;;5091837;28;20439;-76
2022/05/19 15:05:31;;;;;;;12.97;2.40;;;;;;;;;;5092139;28;20845;-76
2022/05/19 15:08:02;;;;;;;12.37;2.30;;;;;;;;;;5092497;28;20807;-76
2022/05/19 15:10:29;;;;;;;13.00;2.50;;;;;;;;;;5092144;28;20442;-75
2022/05/19 15:12:59;;;;;;;12.77;2.23;;;;;;;;;;5092078;28;20923;-76
2022/05/19 15:15:28;;;;;;;14.87;2.13;;;;;;;;;;5091550;28;20961;-76